Time;durP1;ratioP1;P1;durP2;ratioP2;P2;SDS_P1;SDS_P2;PMS_P1;PMS_P2;Temp;Humidity;BMP_temperature;BMP_pressure;BME280_temperature;BME280_humidity;BME280_pressure;Samples;Min_cycle;Max_cycle;Signal;HPM_P1;HPM_P2
2023/04/17 00:01:55;;;;;;;7.60;4.35;;;10.20;91.60;;;;;;5014161;28;20589;-79
2023/04/17 00:04:22;;;;;;;7.53;4.47;;;10.20;91.60;;;;;;5009165;28;20050;-79
2023/04/17 00:06:52;;;;;;;9.13;4.18;;;10.20;91.60;;;;;;5004242;28;20077;-78
2023/04/17 00:09:19;;;;;;;7.82;4.65;;;10.20;91.60;;;;;;5027779;28;20052;-78
2023/04/17 00:11:46;;;;;;;9.88;5.45;;;10.30;91.60;;;;;;5007407;28;20461;-79
2023/04/17 00:14:14;;;;;;;8.20;4.93;;;10.20;91.60;;;;;;5013560;28;20449;-78
2023/04/17 00:16:41;;;;;;;11.20;7.03;;;10.30;91.60;;;;;;5013668;28;20046;-78
2023/04/17 00:19:08;;;;;;;10.40;6.28;;;10.20;91.60;;;;;;4997314;28;20050;-80
2023/04/17 00:21:35;;;;;;;9.10;5.70;;;10.20;91.70;;;;;;5013330;28;20046;-79
2023/04/17 00:24:02;;;;;;;9.15;5.88;;;10.20;91.70;;;;;;5010038;28;20125;-79
2023/04/17 00:26:31;;;;;;;8.90;5.65;;;10.20;91.70;;;;;;5013429;28;20120;-79
2023/04/17 00:28:58;;;;;;;8.98;5.32;;;10.20;91.70;;;;;;5009788;28;20070;-79
2023/04/17 00:31:25;;;;;;;9.68;5.22;;;10.20;91.70;;;;;;5013647;28;20062;-78
2023/04/17 00:33:52;;;;;;;8.40;4.57;;;10.20;91.70;;;;;;5007888;28;20488;-79
2023/04/17 00:36:19;;;;;;;10.57;5.75;;;10.20;91.60;;;;;;5006027;28;20076;-79
2023/04/17 00:38:46;;;;;;;8.20;4.63;;;10.20;91.60;;;;;;4995776;28;20049;-79
2023/04/17 00:41:13;;;;;;;12.73;6.05;;;10.20;91.70;;;;;;4993793;28;20081;-79
2023/04/17 00:43:40;;;;;;;9.05;5.13;;;10.20;91.70;;;;;;5010063;28;20048;-79
2023/04/17 00:46:08;;;;;;;8.98;4.90;;;10.10;91.70;;;;;;5008101;28;20042;-78
2023/04/17 00:48:36;;;;;;;11.10;5.93;;;10.20;91.80;;;;;;5011012;28;20409;-79
2023/04/17 00:51:03;;;;;;;9.25;4.65;;;10.20;91.80;;;;;;5011011;28;20084;-78
2023/04/17 00:53:31;;;;;;;9.98;5.80;;;10.10;91.70;;;;;;5003368;28;20136;-79
2023/04/17 00:56:02;;;;;;;9.63;5.32;;;10.10;91.70;;;;;;4999448;28;20058;-79
2023/04/17 00:58:29;;;;;;;12.18;6.82;;;10.10;91.80;;;;;;5013207;28;20556;-79
2023/04/17 01:00:56;;;;;;;11.25;5.65;;;10.10;91.80;;;;;;4996991;28;20050;-78
2023/04/17 01:03:30;;;;;;;13.00;6.60;;;10.00;91.80;;;;;;5005439;28;20054;-78
2023/04/17 01:05:58;;;;;;;9.90;5.60;;;10.00;91.80;;;;;;5012547;28;20038;-78
2023/04/17 01:08:26;;;;;;;9.27;5.65;;;10.00;91.90;;;;;;5006385;28;20300;-78
2023/04/17 01:10:55;;;;;;;13.15;7.30;;;10.00;91.90;;;;;;4999974;28;20509;-78
2023/04/17 01:13:22;;;;;;;13.35;7.75;;;9.90;91.90;;;;;;4999217;28;20061;-78
2023/04/17 01:15:50;;;;;;;13.30;7.85;;;9.90;92.00;;;;;;5002086;28;20050;-79
2023/04/17 01:18:17;;;;;;;13.90;7.70;;;9.90;92.00;;;;;;4996537;28;20080;-78
2023/04/17 01:20:44;;;;;;;12.45;6.55;;;9.90;92.00;;;;;;5012821;28;20050;-78
2023/04/17 01:23:12;;;;;;;10.15;6.03;;;9.90;92.00;;;;;;5009288;28;20082;-79
2023/04/17 01:25:39;;;;;;;11.85;7.20;;;9.90;92.00;;;;;;5001081;28;20104;-78
2023/04/17 01:28:07;;;;;;;13.63;8.05;;;9.90;92.00;;;;;;5002000;28;20042;-79
2023/04/17 01:30:36;;;;;;;12.10;6.55;;;9.90;92.00;;;;;;5009456;28;20516;-78
2023/04/17 01:33:06;;;;;;;11.15;5.78;;;9.90;92.00;;;;;;5005917;28;20077;-80
2023/04/17 01:35:33;;;;;;;12.25;7.63;;;9.90;92.00;;;;;;4996229;28;20042;-78
2023/04/17 01:38:00;;;;;;;12.77;7.35;;;9.90;92.10;;;;;;5004331;28;20073;-79
2023/04/17 01:40:27;;;;;;;13.38;7.63;;;9.80;92.10;;;;;;5015070;28;20058;-79
2023/04/17 01:42:57;;;;;;;12.57;7.50;;;9.80;92.10;;;;;;5012374;28;20513;-78
2023/04/17 01:45:24;;;;;;;12.50;7.32;;;9.80;92.10;;;;;;5010730;28;20099;-79
2023/04/17 01:47:51;;;;;;;14.48;7.72;;;9.80;92.10;;;;;;5007160;28;20046;-79
2023/04/17 01:50:18;;;;;;;13.95;8.43;;;9.80;92.10;;;;;;5010065;28;20054;-79
2023/04/17 01:52:46;;;;;;;13.38;7.68;;;9.80;92.20;;;;;;5008365;28;20185;-79
2023/04/17 01:55:15;;;;;;;11.18;6.28;;;9.70;92.20;;;;;;5012330;28;20040;-79
2023/04/17 01:57:42;;;;;;;10.50;6.10;;;9.70;92.20;;;;;;4995641;28;20453;-78
2023/04/17 02:00:10;;;;;;;10.30;6.30;;;9.80;92.20;;;;;;5012211;28;20387;-78
2023/04/17 02:02:44;;;;;;;9.32;5.35;;;9.80;92.20;;;;;;4982667;28;20046;-79
2023/04/17 02:05:11;;;;;;;10.05;5.50;;;9.80;92.20;;;;;;5008317;28;20104;-79
2023/04/17 02:07:43;;;;;;;9.75;5.57;;;9.90;92.20;;;;;;5028736;28;20104;-78
2023/04/17 02:10:10;;;;;;;9.00;5.18;;;9.80;92.10;;;;;;5009554;28;20493;-79
2023/04/17 02:12:37;;;;;;;11.10;5.63;;;9.90;92.10;;;;;;4995681;28;20038;-79
2023/04/17 02:15:04;;;;;;;10.50;5.40;;;9.90;92.10;;;;;;4981855;28;20475;-79
2023/04/17 02:17:32;;;;;;;15.07;8.07;;;9.90;92.10;;;;;;4997834;28;20060;-79
2023/04/17 02:19:59;;;;;;;15.63;8.13;;;9.90;92.20;;;;;;5006225;28;20046;-79
2023/04/17 02:22:26;;;;;;;12.85;8.07;;;9.80;92.20;;;;;;5034325;28;20122;-78
2023/04/17 02:24:53;;;;;;;14.38;8.80;;;9.80;92.30;;;;;;4995745;28;20077;-79
2023/04/17 02:27:20;;;;;;;12.70;7.07;;;9.80;92.30;;;;;;4988492;28;20046;-79
2023/04/17 02:29:47;;;;;;;11.55;6.43;;;9.70;92.30;;;;;;5011960;28;20042;-79
2023/04/17 02:32:16;;;;;;;11.75;7.25;;;9.70;92.30;;;;;;5011977;28;20077;-78
2023/04/17 02:34:44;;;;;;;8.45;5.15;;;9.80;92.30;;;;;;5011756;28;20112;-79
2023/04/17 02:37:16;;;;;;;15.48;9.32;;;9.80;92.30;;;;;;5006804;28;20502;-79
2023/04/17 02:39:43;;;;;;;16.20;9.60;;;9.70;92.40;;;;;;5017192;28;20049;-79
2023/04/17 02:42:11;;;;;;;13.75;7.10;;;9.70;92.40;;;;;;5006103;28;20043;-79
2023/04/17 02:44:40;;;;;;;11.85;6.53;;;9.70;92.40;;;;;;4996782;28;20049;-78
2023/04/17 02:47:07;;;;;;;11.93;7.15;;;9.70;92.40;;;;;;4999275;28;20046;-78
2023/04/17 02:49:34;;;;;;;12.13;6.68;;;9.70;92.40;;;;;;5007899;28;20034;-78
2023/04/17 02:52:01;;;;;;;12.88;7.10;;;9.70;92.40;;;;;;5004587;28;20516;-78
2023/04/17 02:54:29;;;;;;;13.13;7.32;;;9.70;92.40;;;;;;4992001;28;20057;-78
2023/04/17 02:56:57;;;;;;;11.80;6.70;;;9.70;92.40;;;;;;4989420;28;20050;-77
2023/04/17 02:59:27;;;;;;;13.30;7.88;;;9.60;92.40;;;;;;5014033;28;20072;-78
2023/04/17 03:01:58;;;;;;;9.82;5.90;;;9.60;92.50;;;;;;5011608;28;20405;-78
2023/04/17 03:04:29;;;;;;;11.75;6.38;;;9.60;92.50;;;;;;4999494;28;20113;-77
2023/04/17 03:06:55;;;;;;;10.77;6.18;;;9.60;92.50;;;;;;5013752;28;20050;-78
2023/04/17 03:09:23;;;;;;;11.45;5.82;;;9.60;92.50;;;;;;5027651;28;20524;-78
2023/04/17 03:11:51;;;;;;;9.60;5.30;;;9.60;92.50;;;;;;4997484;28;20616;-78
2023/04/17 03:14:18;;;;;;;11.15;6.70;;;9.60;92.50;;;;;;5008074;28;20047;-78
2023/04/17 03:16:45;;;;;;;13.90;7.28;;;9.60;92.50;;;;;;5005593;28;20100;-78
2023/04/17 03:19:12;;;;;;;11.32;6.65;;;9.60;92.60;;;;;;4999459;28;20498;-78
2023/04/17 03:21:39;;;;;;;9.48;5.85;;;9.50;92.60;;;;;;5008046;28;20043;-78
2023/04/17 03:24:06;;;;;;;14.07;7.63;;;9.50;92.60;;;;;;4990106;28;20046;-78
2023/04/17 03:26:34;;;;;;;16.80;8.32;;;9.50;92.70;;;;;;5040043;28;20461;-78
2023/04/17 03:29:06;;;;;;;12.05;7.05;;;9.40;92.70;;;;;;5010055;28;20054;-78
2023/04/17 03:31:33;;;;;;;14.00;8.23;;;9.40;92.80;;;;;;5001075;28;20047;-78
2023/04/17 03:34:00;;;;;;;14.38;7.18;;;9.30;92.90;;;;;;5008028;28;20047;-78
2023/04/17 03:36:29;;;;;;;15.68;8.57;;;9.30;92.90;;;;;;5008061;28;20056;-78
2023/04/17 03:38:59;;;;;;;13.02;7.70;;;9.30;92.90;;;;;;5014708;28;20133;-78
2023/04/17 03:41:27;;;;;;;11.73;6.53;;;9.30;92.90;;;;;;5005987;28;20046;-78
2023/04/17 03:43:57;;;;;;;12.40;6.72;;;9.30;92.90;;;;;;4984984;28;20095;-78
2023/04/17 03:46:24;;;;;;;10.80;6.43;;;9.30;92.90;;;;;;4987595;28;20129;-78
2023/04/17 03:48:52;;;;;;;10.65;6.10;;;9.30;92.90;;;;;;4995846;28;20104;-78
2023/04/17 03:51:19;;;;;;;10.45;6.32;;;9.30;92.90;;;;;;5005147;28;20042;-78
2023/04/17 03:53:47;;;;;;;12.48;7.05;;;9.30;92.90;;;;;;5025450;28;20052;-78
2023/04/17 03:56:14;;;;;;;12.98;6.88;;;9.30;92.90;;;;;;5009998;28;20077;-78
2023/04/17 03:58:44;;;;;;;12.65;6.60;;;9.30;92.90;;;;;;5000618;28;20054;-78
2023/04/17 04:01:14;;;;;;;11.50;7.05;;;9.30;92.90;;;;;;4991538;28;20395;-78
2023/04/17 04:03:59;;;;;;;11.93;5.82;;;9.30;93.00;;;;;;5028967;28;20049;-78
2023/04/17 04:06:30;;;;;;;11.85;6.30;;;9.20;93.00;;;;;;5009681;28;20049;-78
2023/04/17 04:09:00;;;;;;;10.02;5.45;;;9.20;93.00;;;;;;5011810;28;20050;-78
2023/04/17 04:11:31;;;;;;;8.00;4.38;;;9.30;93.00;;;;;;5005641;28;20512;-78
2023/04/17 04:13:58;;;;;;;11.75;6.90;;;9.30;93.00;;;;;;4994498;28;20387;-78
2023/04/17 04:16:26;;;;;;;11.50;6.30;;;9.30;93.00;;;;;;4984098;28;20494;-78
2023/04/17 04:19:03;;;;;;;10.35;6.00;;;9.20;93.00;;;;;;5011482;28;20054;-78
2023/04/17 04:21:30;;;;;;;14.32;9.25;;;9.30;93.10;;;;;;4999830;28;20073;-78
2023/04/17 04:23:58;;;;;;;15.25;9.43;;;9.20;93.10;;;;;;4994113;28;20046;-78
2023/04/17 04:26:26;;;;;;;13.13;8.20;;;9.20;93.20;;;;;;5008552;28;20068;-78
2023/04/17 04:28:55;;;;;;;12.10;6.75;;;9.10;93.20;;;;;;5010521;28;20409;-78
2023/04/17 04:31:31;;;;;;;11.57;6.78;;;9.10;93.20;;;;;;5013794;28;20075;-78
2023/04/17 04:34:01;;;;;;;14.23;8.00;;;9.10;93.20;;;;;;5023747;28;20057;-79
2023/04/17 04:36:28;;;;;;;14.55;7.88;;;9.10;93.20;;;;;;5006985;28;20072;-78
2023/04/17 04:39:19;;;;;;;13.57;7.60;;;9.10;93.30;;;;;;4988410;28;20107;-78
2023/04/17 04:41:49;;;;;;;;;;;9.10;93.30;;;;;;5003027;28;20096;-78
2023/04/17 04:44:18;;;;;;;18.58;9.35;;;9.10;93.30;;;;;;5029518;28;20451;-78
2023/04/17 04:46:48;;;;;;;14.20;8.68;;;9.10;93.40;;;;;;4999717;28;20056;-78
2023/04/17 04:49:15;;;;;;;13.10;7.50;;;9.10;93.40;;;;;;5011547;28;20050;-78
2023/04/17 04:51:44;;;;;;;15.82;9.05;;;9.10;93.30;;;;;;4993725;28;20043;-78
2023/04/17 04:54:12;;;;;;;14.13;8.05;;;9.10;93.40;;;;;;5012368;28;20136;-78
2023/04/17 04:56:46;;;;;;;12.55;7.47;;;9.00;93.40;;;;;;5013197;28;20073;-78
2023/04/17 04:59:14;;;;;;;13.85;7.25;;;9.00;93.40;;;;;;5008475;28;20046;-78
2023/04/17 05:01:48;;;;;;;13.07;7.15;;;9.10;93.50;;;;;;4994247;28;20405;-78
2023/04/17 05:04:18;;;;;;;11.93;6.55;;;9.10;93.40;;;;;;5012967;28;20056;-79
2023/04/17 05:06:48;;;;;;;11.60;6.65;;;9.10;93.40;;;;;;4997292;28;20049;-78
2023/04/17 05:09:15;;;;;;;12.80;6.82;;;9.10;93.40;;;;;;5010805;28;20484;-78
2023/04/17 05:11:44;;;;;;;12.13;7.00;;;9.10;93.40;;;;;;5011520;28;20073;-78
2023/04/17 05:14:11;;;;;;;11.32;5.88;;;9.20;93.70;;;;;;5001372;28;20053;-78
2023/04/17 05:16:39;;;;;;;12.18;6.20;;;9.20;93.40;;;;;;5008557;28;20391;-78
2023/04/17 05:19:08;;;;;;;13.02;6.95;;;9.20;93.40;;;;;;5012892;28;20088;-78
2023/04/17 05:21:51;;;;;;;12.27;6.32;;;9.20;93.30;;;;;;5009432;28;20613;-78
2023/04/17 05:24:19;;;;;;;11.82;6.55;;;9.20;93.30;;;;;;5017396;28;20133;-78
2023/04/17 05:26:48;;;;;;;12.00;6.45;;;9.20;93.30;;;;;;4999186;28;20133;-78
2023/04/17 05:29:15;;;;;;;8.80;5.05;;;9.30;93.40;;;;;;5026143;28;20039;-78
2023/04/17 05:31:42;;;;;;;12.27;6.45;;;9.30;93.30;;;;;;5011808;28;20486;-78
2023/04/17 05:34:22;;;;;;;14.13;7.28;;;9.30;93.30;;;;;;5007832;28;20056;-78
2023/04/17 05:36:49;;;;;;;13.57;7.72;;;9.30;93.40;;;;;;5012322;28;20394;-78
2023/04/17 05:39:17;;;;;;;12.95;6.63;;;9.30;93.40;;;;;;5028743;28;20050;-78
2023/04/17 05:41:44;;;;;;;13.02;6.93;;;9.30;93.30;;;;;;5012448;28;20119;-78
2023/04/17 05:44:11;;;;;;;12.40;7.32;;;9.40;93.30;;;;;;5005903;28;20034;-78
2023/04/17 05:46:38;;;;;;;13.07;6.40;;;9.40;93.30;;;;;;5018519;28;20070;-78
2023/04/17 05:49:05;;;;;;;14.90;7.75;;;9.40;93.30;;;;;;5006977;28;20046;-78
2023/04/17 05:51:32;;;;;;;12.73;7.32;;;9.40;93.30;;;;;;5008545;28;20038;-78
2023/04/17 05:54:01;;;;;;;15.07;8.18;;;9.40;93.30;;;;;;5009666;28;20042;-78
2023/04/17 05:56:30;;;;;;;15.57;8.60;;;9.40;93.40;;;;;;4992800;28;20137;-78
2023/04/17 05:58:58;;;;;;;16.75;8.27;;;9.40;93.40;;;;;;4999088;28;20056;-78
2023/04/17 06:01:28;;;;;;;11.88;7.70;;;9.40;93.40;;;;;;4980248;28;20057;-78
2023/04/17 06:03:56;;;;;;;11.63;6.78;;;9.40;93.30;;;;;;5028406;28;20068;-78
2023/04/17 06:06:27;;;;;;;14.52;8.18;;;9.50;93.30;;;;;;5008067;28;20042;-78
2023/04/17 06:08:57;;;;;;;11.18;6.32;;;9.50;93.30;;;;;;5004755;28;20034;-78
2023/04/17 06:11:24;;;;;;;12.10;6.10;;;9.50;93.30;;;;;;5012124;28;20046;-78
2023/04/17 06:13:52;;;;;;;11.77;6.90;;;9.50;93.30;;;;;;5003139;28;20042;-78
2023/04/17 06:16:20;;;;;;;11.43;6.18;;;9.50;93.30;;;;;;4995348;28;20475;-78
2023/04/17 06:18:48;;;;;;;12.93;6.50;;;9.50;93.30;;;;;;5024938;28;20544;-78
2023/04/17 06:21:15;;;;;;;8.55;4.90;;;9.50;93.30;;;;;;4992793;28;20439;-78
2023/04/17 06:23:44;;;;;;;13.23;7.10;;;9.50;93.30;;;;;;4995135;28;20426;-78
2023/04/17 06:26:11;;;;;;;10.93;6.35;;;9.50;93.30;;;;;;4985210;28;20043;-78
2023/04/17 06:28:39;;;;;;;11.70;6.70;;;9.50;93.30;;;;;;5008658;28;20054;-78
2023/04/17 06:31:06;;;;;;;11.52;6.55;;;9.60;93.30;;;;;;5008528;28;20422;-78
2023/04/17 06:33:33;;;;;;;14.73;8.85;;;9.60;93.30;;;;;;5008861;28;20042;-77
2023/04/17 06:36:01;;;;;;;11.90;6.88;;;9.60;93.30;;;;;;4995714;28;20050;-78
2023/04/17 06:38:47;;;;;;;12.25;7.38;;;9.60;93.30;;;;;;4997962;28;20053;-78
2023/04/17 06:41:16;;;;;;;15.93;8.48;;;9.60;93.30;;;;;;5008403;28;20688;-78
2023/04/17 06:43:43;;;;;;;18.38;10.43;;;9.60;93.30;;;;;;4995014;28;20096;-78
2023/04/17 06:46:16;;;;;;;16.40;9.50;;;9.60;93.30;;;;;;5011604;28;20137;-79
2023/04/17 06:48:43;;;;;;;15.30;7.88;;;9.60;93.30;;;;;;4995417;28;20129;-78
2023/04/17 06:51:10;;;;;;;14.27;8.68;;;9.60;93.30;;;;;;5021811;28;20046;-78
2023/04/17 06:53:37;;;;;;;14.82;8.85;;;9.60;93.30;;;;;;4995384;28;20050;-78
2023/04/17 06:56:04;;;;;;;16.17;8.73;;;9.60;93.30;;;;;;4994368;28;20065;-78
2023/04/17 06:58:32;;;;;;;14.20;8.20;;;9.60;93.30;;;;;;5008460;28;20070;-78
2023/04/17 07:00:59;;;;;;;14.55;7.95;;;9.70;93.30;;;;;;5011590;28;20057;-79
2023/04/17 07:03:26;;;;;;;16.73;9.25;;;9.70;93.20;;;;;;5002845;28;20402;-78
2023/04/17 07:05:55;;;;;;;15.50;9.48;;;9.70;93.20;;;;;;5006074;28;20118;-78
2023/04/17 07:08:22;;;;;;;15.60;8.50;;;9.70;93.20;;;;;;4999140;28;20629;-80
2023/04/17 07:10:49;;;;;;;16.13;8.23;;;9.80;93.20;;;;;;5011466;28;20490;-81
2023/04/17 07:13:16;;;;;;;14.20;7.78;;;9.80;93.40;;;;;;5001284;28;20053;-80
2023/04/17 07:15:43;;;;;;;14.75;8.02;;;9.90;93.10;;;;;;5010729;28;20076;-80
2023/04/17 07:18:10;;;;;;;16.27;9.75;;;9.90;93.00;;;;;;5014252;28;20400;-81
2023/04/17 07:20:37;;;;;;;22.52;11.80;;;10.00;93.00;;;;;;5006521;28;20058;-81
2023/04/17 07:23:04;;;;;;;21.20;10.52;;;10.00;93.00;;;;;;5007446;28;20054;-80
2023/04/17 07:25:31;;;;;;;16.98;8.75;;;10.00;93.00;;;;;;4998746;28;20045;-80
2023/04/17 07:27:58;;;;;;;14.63;7.90;;;10.00;92.90;;;;;;5005523;28;20058;-80
2023/04/17 07:30:28;;;;;;;21.00;10.45;;;10.10;92.90;;;;;;5014772;28;20469;-80
2023/04/17 07:32:55;;;;;;;20.55;10.82;;;10.10;92.80;;;;;;5006471;28;20053;-81
2023/04/17 07:35:25;;;;;;;16.55;9.52;;;10.10;92.80;;;;;;5012991;28;20056;-81
2023/04/17 07:37:52;;;;;;;16.25;9.02;;;10.20;92.80;;;;;;5006943;28;20053;-81
2023/04/17 07:40:19;;;;;;;15.52;8.85;;;10.20;92.70;;;;;;5014302;28;20056;-81
2023/04/17 07:42:46;;;;;;;18.40;10.07;;;10.30;92.60;;;;;;5006350;28;20409;-81
2023/04/17 07:45:16;;;;;;;17.55;10.35;;;10.30;92.60;;;;;;5007248;28;20046;-81
2023/04/17 07:47:43;;;;;;;20.42;10.73;;;10.40;92.60;;;;;;5014676;28;20100;-82
2023/04/17 07:50:11;;;;;;;16.38;8.80;;;10.30;92.50;;;;;;5004072;28;20052;-81
2023/04/17 07:52:38;;;;;;;15.60;9.35;;;10.30;92.50;;;;;;5014588;28;20049;-81
2023/04/17 07:55:06;;;;;;;14.95;8.70;;;10.40;92.50;;;;;;5009841;28;20042;-81
2023/04/17 07:57:33;;;;;;;19.23;10.07;;;10.40;92.50;;;;;;5009097;28;20100;-81
2023/04/17 08:00:00;;;;;;;16.13;8.32;;;10.40;92.40;;;;;;5014201;28;20058;-80
2023/04/17 08:02:39;;;;;;;16.45;7.93;;;10.50;92.50;;;;;;5014170;28;20046;-81
2023/04/17 08:05:07;;;;;;;16.15;8.93;;;10.50;92.50;;;;;;5013972;28;20070;-80
2023/04/17 08:07:35;;;;;;;14.98;8.73;;;10.40;92.40;;;;;;5014022;28;20045;-80
2023/04/17 08:10:03;;;;;;;16.20;9.75;;;10.50;92.50;;;;;;5014089;28;20046;-81
2023/04/17 08:12:30;;;;;;;15.55;8.48;;;10.50;92.50;;;;;;5006233;28;20044;-81
2023/04/17 08:14:58;;;;;;;17.50;9.82;;;10.50;92.50;;;;;;5013103;28;20132;-81
2023/04/17 08:17:28;;;;;;;22.65;11.25;;;10.50;92.50;;;;;;5013907;28;20096;-81
2023/04/17 08:19:56;;;;;;;20.30;11.85;;;10.40;92.50;;;;;;4981916;28;20104;-80
2023/04/17 08:22:24;;;;;;;19.35;10.40;;;10.40;92.50;;;;;;4989746;28;20060;-80
2023/04/17 08:24:56;;;;;;;18.15;10.05;;;10.40;92.50;;;;;;4997277;28;20465;-80
2023/04/17 08:27:24;;;;;;;21.35;13.20;;;10.40;92.60;;;;;;5001028;28;20041;-80
2023/04/17 08:29:54;;;;;;;19.70;10.32;;;10.40;92.50;;;;;;4997299;28;20505;-80
2023/04/17 08:32:21;;;;;;;18.92;11.25;;;10.50;92.50;;;;;;4997541;28;20096;-80
2023/04/17 08:34:48;;;;;;;17.67;10.38;;;10.60;92.40;;;;;;5010411;28;20593;-80
2023/04/17 08:37:15;;;;;;;20.70;10.88;;;10.80;92.30;;;;;;4999340;28;20100;-80
2023/04/17 08:39:42;;;;;;;17.90;10.30;;;10.90;92.20;;;;;;5005445;28;20082;-80
2023/04/17 08:42:09;;;;;;;20.05;10.95;;;11.20;92.00;;;;;;4998825;28;20065;-80
2023/04/17 08:44:43;;;;;;;16.02;9.82;;;11.30;91.80;;;;;;5001420;28;20495;-84
2023/04/17 08:47:12;;;;;;;17.33;10.68;;;11.50;91.70;;;;;;5025067;28;20494;-87
2023/04/17 08:49:42;;;;;;;15.60;10.03;;;11.70;91.80;;;;;;4998156;28;20101;-81
2023/04/17 08:52:10;;;;;;;15.95;9.90;;;11.80;91.40;;;;;;5013603;28;20128;-82
2023/04/17 08:54:38;;;;;;;19.17;11.38;;;12.00;91.30;;;;;;5008369;28;20054;-84
2023/04/17 08:57:05;;;;;;;20.20;12.18;;;12.20;91.00;;;;;;5009485;28;20085;-80
2023/04/17 08:59:33;;;;;;;20.08;12.18;;;12.30;90.90;;;;;;4980917;28;20147;-83
2023/04/17 09:02:05;;;;;;;21.67;12.80;;;12.40;90.90;;;;;;5013486;28;20050;-85
2023/04/17 09:04:41;;;;;;;20.23;11.52;;;12.50;90.60;;;;;;5016299;28;20053;-84
2023/04/17 09:07:15;;;;;;;22.52;13.38;;;12.60;90.60;;;;;;5003755;28;20050;-88
2023/04/17 09:10:03;;;;;;;20.15;11.82;;;12.50;90.50;;;;;;4997272;28;20047;-84
2023/04/17 09:12:33;;;;;;;18.45;11.10;;;12.60;90.50;;;;;;5009307;28;20042;-81
2023/04/17 09:15:14;;;;;;;18.58;10.27;;;12.60;90.50;;;;;;4996699;28;20046;-84
2023/04/17 09:17:41;;;;;;;19.30;11.15;;;12.70;90.40;;;;;;4997169;28;20081;-85
2023/04/17 09:20:10;;;;;;;19.75;12.10;;;12.60;90.40;;;;;;4999197;28;20054;-82
2023/04/17 09:22:39;;;;;;;20.90;12.10;;;12.70;90.30;;;;;;5005458;28;20457;-83
2023/04/17 09:25:21;;;;;;;18.75;11.50;;;12.70;90.10;;;;;;5009693;28;20045;-83
2023/04/17 09:27:49;;;;;;;18.65;12.70;;;12.80;90.00;;;;;;5029070;28;20100;-82
2023/04/17 09:30:16;;;;;;;23.75;13.70;;;12.70;89.90;;;;;;4996490;28;20042;-83
2023/04/17 09:32:46;;;;;;;22.55;13.88;;;12.60;89.50;;;;;;4997030;28;20077;-83
2023/04/17 09:35:24;;;;;;;22.48;13.23;;;12.60;89.50;;;;;;4996464;28;20089;-82
2023/04/17 09:37:57;;;;;;;20.88;11.98;;;12.60;89.20;;;;;;5012594;28;20069;-82
2023/04/17 09:40:27;;;;;;;19.40;11.98;;;12.60;89.20;;;;;;4996326;28;20084;-83
2023/04/17 09:43:05;;;;;;;19.80;12.05;;;12.60;89.00;;;;;;5006379;28;20074;-83
2023/04/17 09:45:38;;;;;;;19.48;11.75;;;12.70;88.80;;;;;;4994021;28;20081;-82
2023/04/17 09:48:08;;;;;;;18.95;12.45;;;12.80;88.60;;;;;;5000786;28;20050;-81
2023/04/17 09:50:36;;;;;;;16.67;10.75;;;12.80;88.30;;;;;;5012572;28;20050;-81
2023/04/17 09:53:06;;;;;;;18.73;10.55;;;12.80;88.20;;;;;;5006405;28;20560;-83
2023/04/17 09:55:35;;;;;;;21.17;12.48;;;12.90;87.90;;;;;;5008156;28;20057;-83
2023/04/17 09:58:05;;;;;;;18.38;10.95;;;12.90;87.40;;;;;;5012929;28;20508;-89
2023/04/17 10:00:32;;;;;;;19.13;11.20;;;13.00;87.30;;;;;;5013343;28;20056;-88
2023/04/17 10:02:59;;;;;;;15.80;9.50;;;13.00;87.10;;;;;;5013774;28;20073;-90
2023/04/17 10:05:30;;;;;;;18.42;10.65;;;13.10;87.00;;;;;;4999585;28;20062;-90
2023/04/17 10:08:00;;;;;;;15.98;9.18;;;13.20;86.70;;;;;;4984013;28;20513;-89
2023/04/17 10:10:30;;;;;;;17.40;9.98;;;13.20;86.40;;;;;;5013108;28;20054;-89
2023/04/17 10:12:59;;;;;;;16.63;9.95;;;13.30;86.20;;;;;;5013065;28;20450;-89
2023/04/17 10:15:27;;;;;;;16.75;9.98;;;13.30;85.90;;;;;;5005526;28;20053;-89
2023/04/17 10:17:57;;;;;;;16.50;9.35;;;13.50;85.80;;;;;;4999386;28;20133;-89
2023/04/17 10:20:27;;;;;;;13.90;8.35;;;13.60;85.40;;;;;;5013221;28;20046;-89
2023/04/17 10:22:55;;;;;;;11.18;8.05;;;13.70;85.10;;;;;;4999598;28;20494;-89
2023/04/17 10:25:24;;;;;;;15.23;8.93;;;13.80;84.50;;;;;;5004206;28;20050;-82
2023/04/17 10:27:52;;;;;;;12.77;8.45;;;13.90;83.80;;;;;;5004664;28;20046;-83
2023/04/17 10:30:21;;;;;;;14.73;9.25;;;14.00;83.50;;;;;;4994157;28;20486;-86
2023/04/17 10:33:14;;;;;;;14.00;9.27;;;14.20;82.40;;;;;;4977160;28;20101;-85
2023/04/17 10:35:41;;;;;;;14.07;8.70;;;14.20;81.60;;;;;;5009153;28;20057;-88
2023/04/17 10:38:10;;;;;;;15.57;9.38;;;14.10;81.50;;;;;;5012492;28;20050;-81
2023/04/17 10:40:38;;;;;;;14.35;8.43;;;14.10;81.40;;;;;;5031734;28;20042;-80
2023/04/17 10:43:13;;;;;;;12.57;7.75;;;14.20;81.40;;;;;;4988045;28;20042;-82
2023/04/17 10:46:13;;;;;;;11.18;7.40;;;14.30;81.20;;;;;;5030206;28;20478;-82
2023/04/17 10:48:48;;;;;;;11.73;7.80;;;14.50;80.90;;;;;;5001922;28;20141;-84
2023/04/17 10:51:46;;;;;;;13.93;9.43;;;14.60;80.70;;;;;;5005564;28;20129;-90
2023/04/17 10:54:15;;;;;;;14.73;9.85;;;14.70;79.60;;;;;;4997104;28;20057;-87
2023/04/17 10:56:47;;;;;;;14.00;10.07;;;14.60;79.00;;;;;;5008472;28;20129;-82
2023/04/17 10:59:16;;;;;;;17.77;10.27;;;14.60;78.80;;;;;;4999258;28;20069;-82
2023/04/17 11:01:46;;;;;;;12.85;7.97;;;14.70;79.50;;;;;;5000522;28;20042;-82
2023/04/17 11:04:36;;;;;;;12.40;7.53;;;14.80;78.80;;;;;;5004392;28;20100;-88
2023/04/17 11:07:20;;;;;;;10.35;7.43;;;15.10;78.20;;;;;;5006172;28;20042;-84
2023/04/17 11:09:51;;;;;;;10.15;6.70;;;15.30;77.70;;;;;;5008868;28;20065;-87
2023/04/17 11:12:30;;;;;;;13.05;8.02;;;15.50;77.30;;;;;;5009476;28;20133;-88
2023/04/17 11:15:02;;;;;;;13.40;8.30;;;15.60;76.40;;;;;;5033276;28;20560;-86
2023/04/17 11:17:48;;;;;;;13.98;8.55;;;15.70;75.70;;;;;;5016303;28;20050;-86
2023/04/17 11:20:23;;;;;;;;;;;15.90;75.50;;;;;;5017775;28;20101;-85
2023/04/17 11:22:52;;;;;;;10.43;7.40;;;16.00;75.50;;;;;;5012778;28;19928;-86
2023/04/17 11:25:24;;;;;;;10.75;6.80;;;16.20;75.00;;;;;;5031349;28;20038;-86
2023/04/17 11:28:00;;;;;;;11.15;7.35;;;16.50;74.60;;;;;;5010241;28;20046;-85
2023/04/17 11:30:43;;;;;;;10.18;6.13;;;16.80;73.80;;;;;;5032545;28;20042;-86
2023/04/17 11:33:11;;;;;;;9.65;6.65;;;17.00;73.00;;;;;;5015817;28;20096;-87
2023/04/17 11:36:17;;;;;;;11.43;7.50;;;17.20;72.40;;;;;;4986345;28;20499;-87
2023/04/17 11:38:52;;;;;;;11.50;7.03;;;17.20;71.50;;;;;;5001189;28;20096;-84
2023/04/17 11:41:21;;;;;;;12.07;8.50;;;17.20;71.40;;;;;;5011911;28;20038;-87
2023/04/17 11:43:50;;;;;;;12.77;8.05;;;17.30;71.10;;;;;;5015222;28;20050;-84
2023/04/17 11:46:18;;;;;;;11.63;7.55;;;17.50;70.50;;;;;;5015368;28;20046;-86
2023/04/17 11:48:48;;;;;;;11.68;7.55;;;17.60;70.10;;;;;;5001836;28;20050;-85
2023/04/17 11:51:17;;;;;;;9.35;6.05;;;17.50;70.00;;;;;;5014949;28;20125;-85
2023/04/17 11:53:48;;;;;;;13.57;7.60;;;17.60;70.10;;;;;;5015289;28;20505;-85
2023/04/17 11:56:17;;;;;;;11.55;7.32;;;17.70;69.00;;;;;;5015187;28;20446;-87
2023/04/17 11:58:49;;;;;;;12.88;7.13;;;17.70;68.80;;;;;;5014801;28;20050;-81
2023/04/17 12:01:17;;;;;;;9.48;7.18;;;18.10;68.20;;;;;;5022315;28;20104;-80
2023/04/17 12:03:46;;;;;;;11.30;7.70;;;18.30;66.70;;;;;;5016400;28;20092;-85
2023/04/17 12:06:17;;;;;;;10.45;7.57;;;18.30;66.30;;;;;;4996031;28;20100;-88
2023/04/17 12:08:52;;;;;;;9.85;7.25;;;18.50;66.10;;;;;;5024900;28;20052;-88
2023/04/17 12:11:24;;;;;;;11.10;6.75;;;18.30;66.30;;;;;;5015181;28;20037;-87
2023/04/17 12:13:53;;;;;;;12.05;6.55;;;18.00;67.00;;;;;;5019653;28;20043;-80
2023/04/17 12:16:23;;;;;;;10.35;7.15;;;17.70;67.20;;;;;;5012018;28;20421;-84
2023/04/17 12:18:51;;;;;;;12.85;8.23;;;17.20;67.60;;;;;;4998156;28;20100;-80
2023/04/17 12:21:22;;;;;;;12.32;7.75;;;17.00;68.00;;;;;;5028240;28;20410;-83
2023/04/17 12:23:50;;;;;;;12.10;7.82;;;16.90;68.10;;;;;;5007320;28;20474;-82
2023/04/17 12:26:17;;;;;;;12.43;8.20;;;16.70;68.00;;;;;;5010656;28;20046;-87
2023/04/17 12:28:45;;;;;;;11.98;7.72;;;16.60;67.90;;;;;;5012380;28;20065;-85
2023/04/17 12:31:12;;;;;;;10.50;7.85;;;16.50;67.30;;;;;;5010495;28;20050;-82
2023/04/17 12:33:39;;;;;;;8.60;6.40;;;16.50;67.40;;;;;;5008636;28;20109;-80
2023/04/17 12:36:06;;;;;;;11.50;7.93;;;16.50;67.60;;;;;;5011023;28;20056;-84
2023/04/17 12:38:34;;;;;;;10.15;7.13;;;16.60;66.80;;;;;;5014321;28;20041;-90
2023/04/17 12:41:49;;;;;;;;;;;;;;;;;;;;;
2023/04/17 12:44:24;;;;;;;9.75;6.25;;;16.50;66.40;;;;;;5011499;28;20060;-91
2023/04/17 12:46:54;;;;;;;8.15;5.57;;;16.50;66.40;;;;;;5021522;28;20046;-91
2023/04/17 12:49:46;;;;;;;9.95;5.68;;;16.70;66.20;;;;;;5015021;28;20132;-92
2023/04/17 12:56:33;;;;;;;;;;;;;;;;;;;;;
2023/04/17 12:59:32;;;;;;;9.50;6.40;;;17.20;65.60;;;;;;4997491;28;20054;-93
2023/04/17 13:02:18;;;;;;;10.10;6.68;;;17.20;65.10;;;;;;5003389;28;20066;-91